createdAt,value
2018-04-10T00:02:11.143Z,58.23
2018-04-10T00:04:38.638Z,56.40
2018-04-10T00:07:06.215Z,58.67
2018-04-10T00:09:33.694Z,50.07
2018-04-10T00:12:01.195Z,48.30
2018-04-10T00:14:28.715Z,49.43
2018-04-10T00:16:56.206Z,49.07
2018-04-10T00:19:23.696Z,48.70
2018-04-10T00:21:51.222Z,47.73
2018-04-10T00:24:18.714Z,48.10
2018-04-10T00:26:46.206Z,46.60
2018-04-10T00:29:14.535Z,49.43
2018-04-10T00:31:42.026Z,47.47
2018-04-10T00:34:09.518Z,47.80
2018-04-10T00:36:37.065Z,46.27
2018-04-10T00:39:04.565Z,47.47
2018-04-10T00:41:32.050Z,47.57
2018-04-10T00:43:59.567Z,49.93
2018-04-10T00:46:27.060Z,48.60
2018-04-10T00:48:54.549Z,47.33
2018-04-10T00:51:22.874Z,44.20
2018-04-10T00:53:50.366Z,44.50
2018-04-10T00:56:17.855Z,53.53
2018-04-10T00:58:46.162Z,50.83
2018-04-10T01:01:13.658Z,53.20
2018-04-10T01:03:41.152Z,56.67
2018-04-10T01:06:09.442Z,53.40
2018-04-10T01:08:36.934Z,53.73
2018-04-10T01:11:04.427Z,57.40
2018-04-10T01:13:32.001Z,61.23
2018-04-10T01:15:59.492Z,66.77
2018-04-10T01:18:26.982Z,61.10
2018-04-10T01:20:54.518Z,65.10
2018-04-10T01:23:22.010Z,60.13
2018-04-10T01:25:49.502Z,64.93
2018-04-10T01:28:17.034Z,60.83
2018-04-10T01:30:44.562Z,61.20
2018-04-10T01:33:12.061Z,63.90
2018-04-10T01:35:39.694Z,60.83
2018-04-10T01:38:07.185Z,55.97
2018-04-10T01:40:34.678Z,54.50
2018-04-10T01:43:02.213Z,56.07
2018-04-10T01:52:12.836Z,56.37
2018-04-10T01:54:40.329Z,54.23
2018-04-10T01:57:07.826Z,55.43
2018-04-10T01:59:35.389Z,59.07
2018-04-10T02:02:02.890Z,56.43
2018-04-10T02:04:31.154Z,61.37
2018-04-10T02:06:58.693Z,55.97
2018-04-10T02:09:43.837Z,56.43
2018-04-10T02:12:11.370Z,53.43
2018-04-10T02:14:38.861Z,55.63
2018-04-10T02:17:06.358Z,55.63
2018-04-10T02:19:33.898Z,54.30
2018-04-10T02:22:01.394Z,53.33
2018-04-10T02:24:28.894Z,54.17
2018-04-10T02:26:56.484Z,51.93
2018-04-10T02:29:23.983Z,48.10
2018-04-10T02:31:51.483Z,45.07
2018-04-10T02:34:19.778Z,48.13
2018-04-10T02:36:47.274Z,50.00
2018-04-10T02:39:14.774Z,48.47
2018-04-10T02:41:42.317Z,48.87
2018-04-10T02:44:10.583Z,46.50
2018-04-10T02:46:38.862Z,48.13
2018-04-10T02:49:06.421Z,47.70
2018-04-10T02:51:33.919Z,45.47
2018-04-10T02:54:01.409Z,44.33
2018-04-10T02:56:28.938Z,45.87
2018-04-10T02:58:56.433Z,44.13
2018-04-10T03:01:23.926Z,45.80
2018-04-10T03:03:51.453Z,45.37
2018-04-10T03:06:18.946Z,47.43
2018-04-10T03:08:46.439Z,41.43
2018-04-10T03:11:14.010Z,44.10
2018-04-10T03:13:41.497Z,47.30
2018-04-10T03:16:08.990Z,42.47
2018-04-10T03:18:36.558Z,43.73
2018-04-10T03:21:04.050Z,43.67
2018-04-10T03:23:31.542Z,44.13
2018-04-10T03:25:59.079Z,41.60
2018-04-10T03:28:26.572Z,42.00
2018-04-10T03:30:54.062Z,44.50
2018-04-10T03:33:21.602Z,40.13
2018-04-10T03:35:49.090Z,45.43
2018-04-10T03:38:16.599Z,46.70
2018-04-10T03:40:44.161Z,48.33
2018-04-10T03:43:11.654Z,44.80
2018-04-10T03:45:39.145Z,45.33
2018-04-10T03:48:06.682Z,46.30
2018-04-10T03:50:34.178Z,46.33
2018-04-10T03:53:01.674Z,39.77
2018-04-10T03:55:29.202Z,44.20
2018-04-10T03:57:56.702Z,49.67
2018-04-10T04:00:24.200Z,42.50
2018-04-10T04:02:51.742Z,39.07
2018-04-10T04:05:19.236Z,33.90
2018-04-10T04:07:46.730Z,33.43
2018-04-10T04:10:14.258Z,32.03
2018-04-10T04:12:41.745Z,29.20
2018-04-10T04:15:09.238Z,31.27
2018-04-10T04:17:36.762Z,30.70
2018-04-10T04:20:15.894Z,32.13
2018-04-10T04:22:43.430Z,27.63
2018-04-10T04:25:10.917Z,30.50
2018-04-10T04:27:38.413Z,28.47
2018-04-10T04:30:06.701Z,29.60
2018-04-10T04:32:34.198Z,26.97
2018-04-10T04:35:01.701Z,26.33
2018-04-10T04:37:30.030Z,24.00
2018-04-10T04:39:57.523Z,20.97
2018-04-10T04:42:25.026Z,22.93
2018-04-10T04:44:52.571Z,21.47
2018-04-10T04:47:20.063Z,24.03
2018-04-10T04:49:47.892Z,24.80
2018-04-10T04:52:15.442Z,25.47
2018-04-10T04:54:42.938Z,23.33
2018-04-10T04:57:10.429Z,24.00
2018-04-10T04:59:38.029Z,23.87
2018-04-10T05:02:05.514Z,22.90
2018-04-10T05:04:33.018Z,21.93
2018-04-10T05:07:00.530Z,22.97
2018-04-10T05:09:28.791Z,23.50
2018-04-10T05:11:56.290Z,22.73
2018-04-10T05:14:23.854Z,22.53
2018-04-10T05:16:51.354Z,21.67
2018-04-10T05:19:18.854Z,22.27
2018-04-10T05:21:46.397Z,23.90
2018-04-10T05:24:13.902Z,20.77
2018-04-10T05:26:41.394Z,22.00
2018-04-10T05:29:08.950Z,23.10
2018-04-10T05:31:36.442Z,22.13
2018-04-10T05:34:03.938Z,20.60
2018-04-10T05:36:31.462Z,22.13
2018-04-10T05:38:58.962Z,20.77
2018-04-10T05:41:26.456Z,21.40
2018-04-10T05:43:53.998Z,18.67
2018-04-10T05:46:21.494Z,20.00
2018-04-10T05:48:49.229Z,17.90
2018-04-10T05:51:16.930Z,18.00
2018-04-10T05:53:45.210Z,18.33
2018-04-10T05:56:12.706Z,21.03
2018-04-10T05:58:40.233Z,20.50
2018-04-10T06:01:08.499Z,17.80
2018-04-10T06:03:35.994Z,21.80
2018-04-10T06:06:03.534Z,17.13
2018-04-10T06:08:31.800Z,19.47
2018-04-10T06:10:59.302Z,21.33
2018-04-10T06:13:26.868Z,20.20
2018-04-10T06:15:54.358Z,18.43
2018-04-10T06:18:22.118Z,19.10
2018-04-10T06:20:49.763Z,17.43
2018-04-10T06:23:17.265Z,18.20
2018-04-10T06:25:44.765Z,18.10
2018-04-10T06:28:12.294Z,22.53
2018-04-10T06:30:40.550Z,20.27
2018-04-10T06:33:08.054Z,15.90
2018-04-10T06:35:35.632Z,18.40
2018-04-10T06:38:03.126Z,18.13
2018-04-10T06:40:30.622Z,15.67
2018-04-10T06:42:58.161Z,16.23
2018-04-10T06:45:25.655Z,14.73
2018-04-10T06:47:53.146Z,14.87
2018-04-10T06:50:20.679Z,17.47
2018-04-10T06:52:48.173Z,17.47
2018-04-10T06:55:15.670Z,16.80
2018-04-10T06:57:43.243Z,14.63
2018-04-10T07:00:11.561Z,16.40
2018-04-10T07:02:39.061Z,15.10
2018-04-10T07:05:06.602Z,14.67
2018-04-10T07:07:34.094Z,10.63
2018-04-10T07:10:01.588Z,13.67
2018-04-10T07:12:29.121Z,16.53
2018-04-10T07:14:56.612Z,12.80
2018-04-10T07:17:24.110Z,14.37
2018-04-10T07:19:51.632Z,13.30
2018-04-10T07:22:19.126Z,14.43
2018-04-10T07:24:46.614Z,12.43
2018-04-10T07:27:14.949Z,13.83
2018-04-10T07:29:42.446Z,15.63
2018-04-10T07:32:09.952Z,12.27
2018-04-10T07:34:37.500Z,12.73
2018-04-10T07:37:04.995Z,13.43
2018-04-10T07:39:32.491Z,14.30
2018-04-10T07:42:00.016Z,14.73
2018-04-10T07:44:27.522Z,12.50
2018-04-10T07:46:55.017Z,14.87
2018-04-10T07:49:22.586Z,13.00
2018-04-10T07:51:50.078Z,15.57
2018-04-10T07:54:17.583Z,16.03
2018-04-10T07:56:45.138Z,13.50
2018-04-10T07:59:12.630Z,13.40
2018-04-10T08:01:40.125Z,14.57
2018-04-10T08:04:07.654Z,14.53
2018-04-10T08:06:35.154Z,12.70
2018-04-10T08:09:02.652Z,11.53
2018-04-10T08:11:30.170Z,12.77
2018-04-10T08:13:57.657Z,13.80
2018-04-10T08:16:25.165Z,12.03
2018-04-10T08:18:52.747Z,13.67
2018-04-10T08:21:20.235Z,9.93
2018-04-10T08:23:48.493Z,12.17
2018-04-10T08:26:16.030Z,12.80
2018-04-10T08:28:43.534Z,11.03
2018-04-10T08:31:11.794Z,13.73
2018-04-10T08:33:39.470Z,11.93
2018-04-10T08:36:06.970Z,12.37
2018-04-10T08:38:34.462Z,11.60
2018-04-10T08:41:02.978Z,8.83
2018-04-10T08:43:31.242Z,10.67
2018-04-10T08:45:58.742Z,8.63
2018-04-10T08:48:26.282Z,8.70
2018-04-10T08:50:54.542Z,9.27
2018-04-10T08:53:22.041Z,8.77
2018-04-10T08:55:49.559Z,8.27
2018-04-10T08:58:17.066Z,9.10
2018-04-10T09:00:44.577Z,7.40
2018-04-10T09:03:12.272Z,6.07
2018-04-10T09:05:39.767Z,7.00
2018-04-10T09:08:07.259Z,5.47
2018-04-10T09:10:34.950Z,6.57
2018-04-10T09:13:02.654Z,8.00
2018-04-10T09:15:30.286Z,8.50
2018-04-10T09:17:57.814Z,7.67
2018-04-10T09:20:31.674Z,7.13
2018-04-10T09:22:59.195Z,6.73
2018-04-10T09:25:26.755Z,6.87
2018-04-10T09:27:55.953Z,5.27
2018-04-10T09:30:23.502Z,5.47
2018-04-10T09:32:51.011Z,6.93
2018-04-10T09:35:18.506Z,6.70
2018-04-10T09:37:46.066Z,7.80
2018-04-10T09:40:13.564Z,7.60
2018-04-10T09:42:41.070Z,8.10
2018-04-10T09:45:08.596Z,4.73
2018-04-10T09:47:36.096Z,5.43
2018-04-10T09:50:03.594Z,7.20
2018-04-10T09:52:31.134Z,5.10
2018-04-10T09:54:58.666Z,6.23
2018-04-10T09:57:26.169Z,5.37
2018-04-10T09:59:53.692Z,5.13
2018-04-10T10:02:21.206Z,5.63
2018-04-10T10:04:48.696Z,6.13
2018-04-10T10:07:16.255Z,5.27
2018-04-10T10:09:43.758Z,6.10
2018-04-10T10:12:11.260Z,4.60
2018-04-10T10:14:39.552Z,5.07
2018-04-10T10:17:07.050Z,4.90
2018-04-10T10:19:34.533Z,5.00
2018-04-10T10:22:02.070Z,4.67
2018-04-10T10:24:29.565Z,5.63
2018-04-10T10:26:57.060Z,6.57
2018-04-10T10:29:24.578Z,4.43
2018-04-10T10:31:52.072Z,5.23
2018-04-10T10:34:19.575Z,4.73
2018-04-10T10:36:47.092Z,5.97
2018-04-10T10:39:14.602Z,5.93
2018-04-10T10:41:42.096Z,5.07
2018-04-10T10:44:09.637Z,6.30
2018-04-10T10:46:37.136Z,5.13
2018-04-10T10:49:04.635Z,4.47
2018-04-10T10:51:32.202Z,5.73
2018-04-10T10:53:59.691Z,4.60
2018-04-10T10:56:27.183Z,6.23
2018-04-10T10:58:54.706Z,5.77
2018-04-10T11:01:22.201Z,6.90
2018-04-10T11:03:49.694Z,5.80
2018-04-10T11:06:17.234Z,6.37
2018-04-10T11:08:44.723Z,4.97
2018-04-10T11:11:12.209Z,6.20
2018-04-10T11:13:39.722Z,5.07
2018-04-10T11:16:07.223Z,5.63
2018-04-10T11:18:34.722Z,5.77
2018-04-10T11:21:02.244Z,5.37
2018-04-10T11:23:30.530Z,4.30
2018-04-10T11:25:58.023Z,5.87
2018-04-10T11:28:25.583Z,5.10
2018-04-10T11:30:53.090Z,4.40
2018-04-10T11:33:20.591Z,4.83
2018-04-10T11:35:48.137Z,4.47
2018-04-10T11:38:15.626Z,4.40
2018-04-10T11:40:43.118Z,5.30
2018-04-10T11:43:10.655Z,5.43
2018-04-10T11:45:38.150Z,4.03
2018-04-10T11:48:05.640Z,6.17
2018-04-10T11:50:33.199Z,5.43
2018-04-10T11:53:00.694Z,4.60
2018-04-10T11:55:28.186Z,4.53
2018-04-10T11:57:55.709Z,4.67
2018-04-10T12:00:23.202Z,5.23
2018-04-10T12:02:50.695Z,4.77
2018-04-10T12:05:18.218Z,6.37
2018-04-10T12:07:45.709Z,4.00
2018-04-10T12:10:13.209Z,2.80
2018-04-10T12:12:41.150Z,6.27
2018-04-10T12:15:08.638Z,3.83
2018-04-10T12:17:36.135Z,3.77
2018-04-10T12:20:07.013Z,4.70
2018-04-10T12:22:34.502Z,4.33
2018-04-10T12:25:01.994Z,5.23
2018-04-10T12:27:29.533Z,5.17
2018-04-10T12:29:57.049Z,3.93
2018-04-10T12:32:24.543Z,4.13
2018-04-10T12:34:52.061Z,2.80
2018-04-10T12:37:19.572Z,2.90
2018-04-10T12:39:47.058Z,2.60
2018-04-10T12:42:14.578Z,2.33
2018-04-10T12:44:42.070Z,2.60
2018-04-10T12:47:09.559Z,2.67
2018-04-10T12:49:37.127Z,2.63
2018-04-10T12:52:04.618Z,3.50
2018-04-10T12:54:32.106Z,2.47
2018-04-10T12:56:59.639Z,2.67
2018-04-10T12:59:27.133Z,2.50
2018-04-10T13:01:54.622Z,3.23
2018-04-10T13:04:22.139Z,2.93
2018-04-10T13:06:49.731Z,2.37
2018-04-10T13:09:17.222Z,2.10
2018-04-10T13:11:45.502Z,4.27
2018-04-10T13:14:13.063Z,3.30
2018-04-10T13:16:40.579Z,2.80
2018-04-10T13:19:08.187Z,2.83
2018-04-10T13:21:35.686Z,2.23
2018-04-10T13:24:03.177Z,2.20
2018-04-10T13:26:30.690Z,2.07
2018-04-10T13:28:58.177Z,3.03
2018-04-10T13:31:25.667Z,2.10
2018-04-10T13:33:53.186Z,2.23
2018-04-10T13:36:20.672Z,2.13
2018-04-10T13:38:48.168Z,2.10
2018-04-10T13:41:15.737Z,4.83
2018-04-10T13:43:43.263Z,2.23
2018-04-10T13:46:10.743Z,2.13
2018-04-10T13:48:38.282Z,2.97
2018-04-10T13:51:05.778Z,2.73
2018-04-10T13:53:33.274Z,1.80
2018-04-10T13:56:00.787Z,2.80
2018-04-10T13:58:29.042Z,2.20
2018-04-10T14:00:56.526Z,2.23
2018-04-10T14:03:24.042Z,4.63
2018-04-10T14:05:51.537Z,2.83
2018-04-10T14:08:19.799Z,1.60
2018-04-10T14:10:47.339Z,2.80
2018-04-10T14:13:14.838Z,1.63
2018-04-10T14:15:43.118Z,1.80
2018-04-10T14:18:10.683Z,1.40
2018-04-10T14:20:38.933Z,1.10
2018-04-10T14:23:06.490Z,1.30
2018-04-10T14:25:34.029Z,1.73
2018-04-10T14:28:01.522Z,1.67
2018-04-10T14:30:29.019Z,1.87
2018-04-10T14:32:56.555Z,2.43
2018-04-10T14:35:24.059Z,3.10
2018-04-10T14:37:53.593Z,2.00
2018-04-10T14:40:21.226Z,2.40
2018-04-10T14:42:48.722Z,1.97
2018-04-10T14:45:16.226Z,2.07
2018-04-10T14:47:43.754Z,2.30
2018-04-10T14:50:11.242Z,1.30
2018-04-10T14:52:38.760Z,1.50
2018-04-10T14:55:06.314Z,3.83
2018-04-10T14:57:33.810Z,1.53
2018-04-10T15:00:01.314Z,2.13
2018-04-10T15:02:28.831Z,1.30
2018-04-10T15:04:56.334Z,2.00
2018-04-10T15:07:23.854Z,2.37
2018-04-10T15:09:52.186Z,1.93
2018-04-10T15:12:19.696Z,1.67
2018-04-10T15:14:47.950Z,1.33
2018-04-10T15:17:15.514Z,2.00
2018-04-10T15:19:43.162Z,1.57
2018-04-10T15:22:10.653Z,1.83
2018-04-10T15:24:38.190Z,1.50
2018-04-10T15:27:05.678Z,2.07
2018-04-10T15:29:33.943Z,1.10
2018-04-10T15:32:01.478Z,1.47
2018-04-10T15:34:28.994Z,1.27
2018-04-10T15:36:56.491Z,0.93
2018-04-10T15:39:24.010Z,0.97
2018-04-10T15:41:51.502Z,1.67
2018-04-10T15:44:19.014Z,1.00
2018-04-10T15:46:47.343Z,1.07
2018-04-10T15:49:14.934Z,1.43
2018-04-10T15:51:42.482Z,2.53
2018-04-10T15:54:10.079Z,1.20
2018-04-10T15:56:37.563Z,1.20
2018-04-10T15:59:05.080Z,1.47
2018-04-10T16:01:32.602Z,1.40
2018-04-10T16:04:00.890Z,1.20
2018-04-10T16:06:28.399Z,1.33
2018-04-10T16:08:56.718Z,2.20
2018-04-10T16:11:24.250Z,2.07
2018-04-10T16:13:52.598Z,1.30
2018-04-10T16:16:20.250Z,1.53
2018-04-10T16:18:47.743Z,1.17
2018-04-10T16:21:15.242Z,0.90
2018-04-10T16:23:43.522Z,2.67
2018-04-10T16:26:11.013Z,3.80
2018-04-10T16:28:38.510Z,1.77
2018-04-10T16:31:06.069Z,3.00
2018-04-10T16:33:33.574Z,5.03
2018-04-10T16:36:01.071Z,2.10
2018-04-10T16:38:29.497Z,1.37
2018-04-10T16:40:57.026Z,1.33
2018-04-10T16:43:24.531Z,1.00
2018-04-10T16:45:52.075Z,1.10
2018-04-10T16:48:19.575Z,0.80
2018-04-10T16:50:47.080Z,1.77
2018-04-10T16:53:14.682Z,5.43
2018-04-10T16:55:42.153Z,3.27
2018-04-10T16:58:09.644Z,1.90
2018-04-10T17:00:37.970Z,1.77
2018-04-10T17:03:05.539Z,1.60
2018-04-10T17:05:33.023Z,1.73
2018-04-10T17:08:00.758Z,2.03
2018-04-10T17:10:28.263Z,1.20
2018-04-10T17:12:55.786Z,3.50
2018-04-10T17:15:23.367Z,1.57
2018-04-10T17:17:50.871Z,3.03
2018-04-10T17:20:18.369Z,1.50
2018-04-10T17:22:45.934Z,1.40
2018-04-10T17:25:13.434Z,1.30
2018-04-10T17:27:40.927Z,2.93
2018-04-10T17:30:09.339Z,2.20
2018-04-10T17:32:37.796Z,1.87
2018-04-10T17:35:05.290Z,1.93
2018-04-10T17:37:32.827Z,1.03
2018-04-10T17:40:00.318Z,1.73
2018-04-10T17:42:27.810Z,1.30
2018-04-10T17:44:55.339Z,1.90
2018-04-10T17:47:22.887Z,3.40
2018-04-10T17:49:50.392Z,2.17
2018-04-10T17:52:18.074Z,1.17
2018-04-10T17:54:45.575Z,1.43
2018-04-10T17:57:13.062Z,3.20
2018-04-10T17:59:41.366Z,1.40
2018-04-10T18:02:08.854Z,3.13
2018-04-10T18:04:36.347Z,2.00
2018-04-10T18:07:03.907Z,1.23
2018-04-10T18:09:31.405Z,3.73
2018-04-10T18:11:58.939Z,2.03
2018-04-10T18:14:27.299Z,4.13
2018-04-10T18:16:54.857Z,2.13
2018-04-10T18:19:22.641Z,3.03
2018-04-10T18:21:50.186Z,1.53
2018-04-10T18:24:17.674Z,1.90
2018-04-10T18:26:45.173Z,2.00
2018-04-10T18:29:12.690Z,3.07
2018-04-10T18:31:40.951Z,1.73
2018-04-10T18:34:08.590Z,2.07
2018-04-10T18:36:36.156Z,2.00
2018-04-10T18:39:03.720Z,1.83
2018-04-10T18:41:31.394Z,1.00
2018-04-10T18:43:58.959Z,1.10
2018-04-10T18:46:26.480Z,1.33
2018-04-10T18:48:53.974Z,1.93
2018-04-10T18:51:21.503Z,1.17
2018-04-10T18:53:49.003Z,1.83
2018-04-10T18:56:16.502Z,2.00
2018-04-10T18:58:44.079Z,1.50
2018-04-10T19:01:11.613Z,2.57
2018-04-10T19:03:39.108Z,3.83
2018-04-10T19:06:06.750Z,1.73
2018-04-10T19:08:34.311Z,4.07
2018-04-10T19:11:01.898Z,1.47
2018-04-10T19:13:29.510Z,1.10
2018-04-10T19:15:57.156Z,1.13
2018-04-10T19:18:24.991Z,4.00
2018-04-10T19:20:52.868Z,2.63
2018-04-10T19:23:20.379Z,3.60
2018-04-10T19:25:47.900Z,1.83
2018-04-10T19:28:15.605Z,2.23
2018-04-10T19:30:43.162Z,6.13
2018-04-10T19:33:11.423Z,2.27
2018-04-10T19:35:38.935Z,3.10
2018-04-10T19:38:06.434Z,1.43
2018-04-10T19:40:33.975Z,1.30
2018-04-10T19:43:02.591Z,2.27
2018-04-10T19:45:30.116Z,0.83
2018-04-10T19:47:57.692Z,1.60
2018-04-10T19:50:25.313Z,1.63
2018-04-10T19:52:52.825Z,1.50
2018-04-10T19:55:20.322Z,1.40
2018-04-10T19:57:47.877Z,2.17
2018-04-10T20:00:15.400Z,2.03
2018-04-10T20:02:42.898Z,1.57
2018-04-10T20:05:11.103Z,1.20
2018-04-10T20:07:38.598Z,0.93
2018-04-10T20:10:06.082Z,2.20
2018-04-10T20:12:33.654Z,0.67
2018-04-10T20:15:01.146Z,0.60
2018-04-10T20:17:28.641Z,1.80
2018-04-10T20:19:56.174Z,1.27
2018-04-10T20:22:23.662Z,1.20
2018-04-10T20:24:51.146Z,2.73
2018-04-10T20:27:18.702Z,1.10
2018-04-10T20:29:46.200Z,1.30
2018-04-10T20:32:13.695Z,1.97
2018-04-10T20:34:41.986Z,1.20
2018-04-10T20:37:09.481Z,2.70
2018-04-10T20:39:36.987Z,1.30
2018-04-10T20:42:05.262Z,1.13
2018-04-10T20:44:33.526Z,1.80
2018-04-10T20:47:01.015Z,2.37
2018-04-10T20:49:28.555Z,0.80
2018-04-10T20:51:56.066Z,1.30
2018-04-10T20:54:23.554Z,1.33
2018-04-10T20:56:51.114Z,1.70
2018-04-10T20:59:18.602Z,1.33
2018-04-10T21:01:46.871Z,0.93
2018-04-10T21:04:14.422Z,2.10
2018-04-10T21:06:41.940Z,0.70
2018-04-10T21:09:09.426Z,1.17
2018-04-10T21:11:36.959Z,1.17
2018-04-10T21:14:04.446Z,1.90
2018-04-10T21:16:31.938Z,1.80
2018-04-10T21:18:59.500Z,1.10
2018-04-10T21:21:27.226Z,2.17
2018-04-10T21:23:54.722Z,1.43
2018-04-10T21:26:22.253Z,1.67
2018-04-10T21:28:49.775Z,1.80
2018-04-10T21:31:17.266Z,1.20
2018-04-10T21:33:44.798Z,3.93
2018-04-10T21:36:12.287Z,2.30
2018-04-10T21:38:39.774Z,1.87
2018-04-10T21:41:07.301Z,1.23
2018-04-10T21:43:34.792Z,2.47
2018-04-10T21:46:02.290Z,1.57
2018-04-10T21:48:29.810Z,1.87
2018-04-10T21:50:57.302Z,2.40
2018-04-10T21:53:25.562Z,1.37
2018-04-10T21:55:53.162Z,0.83
2018-04-10T21:58:20.650Z,1.37
2018-04-10T22:00:48.142Z,3.37
2018-04-10T22:03:15.678Z,2.07
2018-04-10T22:05:43.174Z,1.43
2018-04-10T22:08:11.426Z,1.13
2018-04-10T22:10:38.950Z,2.13
2018-04-10T22:13:06.478Z,1.23
2018-04-10T22:15:33.978Z,2.43
2018-04-10T22:18:02.283Z,1.60
2018-04-10T22:20:29.776Z,0.90
2018-04-10T22:22:57.269Z,1.90
2018-04-10T22:25:24.785Z,2.23
2018-04-10T22:27:52.287Z,2.87
2018-04-10T22:30:19.827Z,1.67
2018-04-10T22:32:48.315Z,1.97
2018-04-10T22:35:15.814Z,1.50
2018-04-10T22:37:43.302Z,1.03
2018-04-10T22:40:10.835Z,3.17
2018-04-10T22:42:38.331Z,1.07
2018-04-10T22:45:05.833Z,1.37
2018-04-10T22:47:33.364Z,1.10
2018-04-10T22:50:00.859Z,1.67
2018-04-10T22:52:28.354Z,1.50
2018-04-10T22:54:56.679Z,1.27
2018-04-10T22:57:24.170Z,6.60
2018-04-10T22:59:51.662Z,1.97
2018-04-10T23:02:19.994Z,3.33
2018-04-10T23:04:47.495Z,1.43
2018-04-10T23:07:15.767Z,1.03
2018-04-10T23:09:43.297Z,1.87
2018-04-10T23:12:10.952Z,1.83
2018-04-10T23:14:38.439Z,2.50
2018-04-10T23:17:05.969Z,2.87
2018-04-10T23:19:33.466Z,2.90
2018-04-10T23:22:00.959Z,2.40
2018-04-10T23:24:29.287Z,3.23
2018-04-10T23:26:56.782Z,1.90
2018-04-10T23:29:24.275Z,2.67
2018-04-10T23:31:52.585Z,1.27
2018-04-10T23:34:20.083Z,2.13
2018-04-10T23:36:47.574Z,1.93
2018-04-10T23:39:15.888Z,3.50
2018-04-10T23:41:43.383Z,1.87
2018-04-10T23:44:10.887Z,2.40
2018-04-10T23:46:38.521Z,20.07
2018-04-10T23:49:06.024Z,2.27
2018-04-10T23:51:33.517Z,1.80
2018-04-10T23:54:01.106Z,2.00
2018-04-10T23:56:28.603Z,3.70
2018-04-10T23:58:56.096Z,3.47
